createdAt,value
2019-05-12T00:00:19.935Z,24.27
2019-05-12T00:05:12.024Z,24.23
2019-05-12T00:10:05.100Z,25.53
2019-05-12T00:14:58.987Z,22.70
2019-05-12T00:19:51.131Z,22.80
2019-05-12T00:24:43.759Z,24.63
2019-05-12T00:29:37.802Z,26.57
2019-05-12T00:34:30.620Z,28.23
2019-05-12T00:39:23.228Z,32.13
2019-05-12T00:44:18.364Z,27.17
2019-05-12T00:49:11.216Z,24.60
2019-05-12T00:54:03.458Z,49.97
2019-05-12T00:58:58.022Z,57.93
2019-05-12T01:03:50.076Z,24.67
2019-05-12T01:08:42.742Z,27.53
2019-05-12T01:13:35.306Z,56.67
2019-05-12T01:18:28.107Z,46.00
2019-05-12T01:23:23.376Z,31.03
2019-05-12T01:28:14.562Z,24.33
2019-05-12T01:33:08.557Z,20.63
2019-05-12T01:38:01.534Z,20.47
2019-05-12T01:42:53.968Z,24.53
2019-05-12T01:47:48.513Z,47.57
2019-05-12T01:52:40.798Z,37.17
2019-05-12T01:57:33.270Z,24.03
2019-05-12T02:02:28.400Z,23.30
2019-05-12T02:07:19.808Z,21.83
2019-05-12T02:12:12.281Z,25.27
2019-05-12T02:17:04.343Z,30.60
2019-05-12T02:21:57.946Z,24.07
2019-05-12T02:26:50.377Z,24.10
2019-05-12T02:31:42.896Z,23.00
2019-05-12T02:36:35.386Z,21.37
2019-05-12T02:41:27.763Z,25.57
2019-05-12T02:46:20.314Z,26.67
2019-05-12T02:51:15.534Z,33.77
2019-05-12T02:56:07.699Z,24.67
2019-05-12T03:01:05.271Z,21.63
2019-05-12T03:05:58.616Z,29.50
2019-05-12T03:10:54.812Z,27.13
2019-05-12T03:15:46.924Z,25.97
2019-05-12T03:20:39.071Z,31.13
2019-05-12T03:25:35.088Z,23.57
2019-05-12T03:30:29.154Z,21.20
2019-05-12T03:35:19.940Z,24.43
2019-05-12T03:40:14.505Z,23.03
2019-05-12T03:45:07.055Z,18.50
2019-05-12T03:49:59.215Z,21.40
2019-05-12T03:54:55.719Z,24.10
2019-05-12T03:59:46.474Z,25.53
2019-05-12T04:04:38.757Z,23.63
2019-05-12T04:09:31.064Z,22.43
2019-05-12T04:14:25.223Z,24.73
2019-05-12T04:19:17.869Z,20.43
2019-05-12T04:24:10.431Z,20.37
2019-05-12T04:29:05.085Z,21.73
2019-05-12T04:33:56.959Z,25.83
2019-05-12T04:38:49.519Z,21.33
2019-05-12T04:43:44.723Z,21.60
2019-05-12T04:48:36.279Z,18.67
2019-05-12T04:53:28.380Z,24.90
2019-05-12T04:58:20.727Z,23.23
2019-05-12T05:03:14.149Z,19.27
2019-05-12T05:08:07.058Z,19.57
2019-05-12T05:12:59.550Z,29.17
2019-05-12T05:17:54.403Z,19.83
2019-05-12T05:22:45.869Z,21.93
2019-05-12T05:27:38.144Z,22.37
2019-05-12T05:32:30.675Z,17.63
2019-05-12T05:37:23.973Z,17.87
2019-05-12T05:42:16.641Z,17.70
2019-05-12T05:47:09.365Z,15.33
2019-05-12T05:52:03.548Z,14.73
2019-05-12T05:57:01.859Z,13.70
2019-05-12T06:01:52.524Z,15.63
2019-05-12T06:06:50.824Z,10.53
2019-05-12T06:11:38.462Z,11.90
2019-05-12T06:16:31.270Z,8.53
2019-05-12T06:21:24.255Z,7.90
2019-05-12T06:26:26.700Z,8.77
2019-05-12T06:31:13.806Z,7.00
2019-05-12T06:36:07.543Z,10.37
2019-05-12T06:41:03.615Z,6.87
2019-05-12T06:45:56.365Z,5.57
2019-05-12T06:50:49.011Z,6.70
2019-05-12T06:55:43.326Z,5.85
2019-05-12T07:00:35.629Z,6.50
2019-05-12T07:05:35.949Z,6.27
2019-05-12T07:10:36.871Z,5.78
2019-05-12T07:15:17.438Z,7.35
2019-05-12T07:20:10.364Z,6.60
2019-05-12T07:25:04.552Z,3.77
2019-05-12T07:29:56.920Z,5.27
2019-05-12T07:34:50.015Z,5.33
2019-05-12T07:39:47.226Z,4.55
2019-05-12T07:44:41.150Z,5.40
2019-05-12T07:49:38.568Z,6.37
2019-05-12T07:54:34.655Z,7.63
2019-05-12T07:59:28.287Z,4.58
2019-05-12T08:04:17.344Z,4.17
2019-05-12T08:09:10.000Z,6.47
2019-05-12T08:14:03.622Z,6.15
2019-05-12T08:18:56.073Z,6.05
2019-05-12T08:23:50.729Z,4.28
2019-05-12T08:28:44.135Z,3.98
2019-05-12T08:33:36.943Z,2.60
2019-05-12T08:38:29.430Z,3.12
2019-05-12T08:43:24.105Z,3.58
2019-05-12T08:48:21.486Z,5.33
2019-05-12T08:53:12.243Z,5.60
2019-05-12T08:58:04.100Z,4.33
2019-05-12T09:02:56.399Z,4.05
2019-05-12T09:07:48.745Z,4.55
2019-05-12T09:12:41.150Z,5.92
2019-05-12T09:17:36.957Z,5.67
2019-05-12T09:22:27.521Z,5.87
2019-05-12T09:27:19.775Z,2.85
2019-05-12T09:32:14.590Z,4.80
2019-05-12T09:37:06.382Z,4.72
2019-05-12T09:41:58.816Z,4.22
2019-05-12T09:46:53.417Z,3.63
2019-05-12T09:51:46.038Z,5.90
2019-05-12T09:56:41.133Z,4.85
2019-05-12T10:01:35.352Z,8.98
2019-05-12T10:06:26.292Z,3.58
2019-05-12T10:11:20.800Z,3.58
2019-05-12T10:16:13.417Z,3.98
2019-05-12T10:21:09.991Z,5.62
2019-05-12T10:26:01.322Z,5.47
2019-05-12T10:30:56.938Z,3.33
2019-05-12T10:35:48.492Z,6.78
2019-05-12T10:40:41.033Z,5.25
2019-05-12T10:45:34.814Z,4.58
2019-05-12T10:50:27.316Z,5.95
2019-05-12T10:55:19.629Z,3.95
2019-05-12T11:00:19.723Z,3.25
2019-05-12T11:05:12.418Z,3.80
2019-05-12T11:10:15.346Z,5.05
2019-05-12T11:15:06.808Z,6.35
2019-05-12T11:19:56.157Z,5.90
2019-05-12T11:24:52.421Z,3.95
2019-05-12T11:29:48.530Z,6.45
2019-05-12T11:34:37.304Z,5.10
2019-05-12T11:39:30.633Z,4.53
2019-05-12T11:44:24.073Z,5.50
2019-05-12T11:49:21.754Z,10.58
2019-05-12T11:54:11.498Z,4.90
2019-05-12T11:59:05.238Z,2.65
2019-05-12T12:03:57.967Z,5.65
2019-05-12T12:08:50.640Z,4.65
2019-05-12T12:13:43.310Z,3.83
2019-05-12T12:18:35.504Z,6.12
2019-05-12T12:23:27.858Z,3.37
2019-05-12T12:28:20.825Z,3.40
2019-05-12T12:33:14.355Z,3.20
2019-05-12T12:38:07.323Z,4.67
2019-05-12T12:43:00.041Z,3.92
2019-05-12T12:47:54.080Z,3.33
2019-05-12T12:52:48.952Z,3.65
2019-05-12T12:57:46.343Z,5.62
2019-05-12T13:02:39.112Z,2.42
2019-05-12T13:07:28.542Z,3.00
2019-05-12T13:12:20.804Z,2.87
2019-05-12T13:17:14.226Z,4.72
2019-05-12T13:22:08.860Z,2.33
2019-05-12T13:27:03.615Z,3.20
2019-05-12T13:31:55.683Z,3.58
2019-05-12T13:36:48.085Z,4.00
2019-05-12T13:41:40.508Z,5.42
2019-05-12T13:46:34.481Z,2.72
2019-05-12T13:51:27.051Z,2.77
2019-05-12T13:56:27.842Z,5.35
2019-05-12T14:01:19.803Z,3.00
2019-05-12T14:06:07.464Z,2.52
2019-05-12T14:11:00.114Z,1.87
2019-05-12T14:15:53.691Z,2.98
2019-05-12T14:20:50.977Z,3.15
2019-05-12T14:25:40.387Z,3.58
2019-05-12T14:30:33.626Z,6.00
2019-05-12T14:35:26.137Z,2.77
2019-05-12T14:40:21.437Z,3.42
2019-05-12T14:45:13.785Z,2.87
2019-05-12T14:50:06.662Z,4.17
2019-05-12T14:54:59.439Z,2.25
2019-05-12T14:59:52.231Z,3.35
2019-05-12T15:04:44.714Z,2.95
2019-05-12T15:09:37.121Z,3.77
2019-05-12T15:14:32.843Z,1.90
2019-05-12T15:19:27.790Z,2.40
2019-05-12T15:24:19.266Z,3.92
2019-05-12T15:29:18.015Z,4.17
2019-05-12T15:34:05.739Z,3.08
2019-05-12T15:38:59.027Z,3.08
2019-05-12T15:43:53.670Z,3.02
2019-05-12T15:48:45.118Z,3.00
2019-05-12T15:53:37.635Z,3.42
2019-05-12T15:58:29.976Z,2.40
2019-05-12T16:03:23.623Z,2.02
2019-05-12T16:08:16.273Z,3.27
2019-05-12T16:13:08.780Z,2.40
2019-05-12T16:18:08.116Z,2.45
2019-05-12T16:22:55.463Z,3.12
2019-05-12T16:27:47.688Z,4.65
2019-05-12T16:32:46.447Z,2.85
2019-05-12T16:37:35.297Z,4.30
2019-05-12T16:42:27.390Z,3.60
2019-05-12T16:47:27.351Z,3.17
2019-05-12T16:52:15.465Z,3.52
2019-05-12T16:57:14.734Z,2.60
2019-05-12T17:02:07.545Z,3.40
2019-05-12T17:06:57.944Z,3.08
2019-05-12T17:11:52.796Z,4.17
2019-05-12T17:16:46.765Z,3.52
2019-05-12T17:21:38.737Z,3.27
2019-05-12T17:26:33.447Z,2.22
2019-05-12T17:31:26.190Z,4.85
2019-05-12T17:36:18.345Z,3.25
2019-05-12T17:41:10.356Z,3.60
2019-05-12T17:46:04.534Z,3.45
2019-05-12T17:50:57.220Z,2.92
2019-05-12T17:55:53.165Z,3.52
2019-05-12T18:00:47.633Z,3.08
2019-05-12T18:05:37.254Z,3.05
2019-05-12T18:10:32.490Z,2.33
2019-05-12T18:15:32.352Z,3.25
2019-05-12T18:20:17.946Z,2.27
2019-05-12T18:25:10.711Z,2.40
2019-05-12T18:30:04.445Z,2.30
2019-05-12T18:34:57.216Z,3.60
2019-05-12T18:39:49.620Z,6.65
2019-05-12T18:44:43.878Z,2.80
2019-05-12T18:49:35.896Z,2.40
2019-05-12T18:54:28.782Z,4.83
2019-05-12T18:59:20.879Z,4.97
2019-05-12T19:04:14.342Z,3.47
2019-05-12T19:09:08.770Z,4.10
2019-05-12T19:14:01.358Z,2.98
2019-05-12T19:18:55.714Z,3.90
2019-05-12T19:23:48.097Z,3.27
2019-05-12T19:28:44.366Z,3.92
2019-05-12T19:33:35.015Z,5.78
2019-05-12T19:38:27.874Z,7.45
2019-05-12T19:43:19.862Z,6.30
2019-05-12T19:48:23.667Z,8.63
2019-05-12T19:53:10.274Z,3.90
2019-05-12T19:58:05.395Z,7.90
2019-05-12T20:02:55.417Z,11.73
2019-05-12T20:07:47.879Z,13.68
2019-05-12T20:12:40.392Z,7.87
2019-05-12T20:17:33.946Z,18.48
2019-05-12T20:22:26.406Z,8.33
2019-05-12T20:27:21.930Z,15.13
2019-05-12T20:32:13.951Z,43.25
2019-05-12T20:37:13.069Z,11.90
2019-05-12T20:42:03.091Z,16.57
2019-05-12T20:47:01.473Z,25.57
2019-05-12T20:51:54.858Z,17.55
2019-05-12T20:56:43.912Z,12.67
2019-05-12T21:01:36.438Z,27.27
2019-05-12T21:06:33.122Z,21.57
2019-05-12T21:11:24.565Z,22.47
2019-05-12T21:16:20.275Z,20.60
2019-05-12T21:21:11.304Z,20.70
2019-05-12T21:26:04.295Z,20.90
2019-05-12T21:30:57.003Z,12.23
2019-05-12T21:35:49.412Z,25.47
2019-05-12T21:40:41.664Z,16.63
2019-05-12T21:45:34.213Z,16.43
2019-05-12T21:50:32.370Z,23.00
2019-05-12T21:55:21.991Z,16.90
2019-05-12T22:00:24.500Z,15.40
2019-05-12T22:05:28.193Z,7.03
2019-05-12T22:10:15.348Z,5.70
2019-05-12T22:15:11.270Z,6.33
2019-05-12T22:20:08.980Z,6.30
2019-05-12T22:24:55.243Z,5.20
2019-05-12T22:29:47.766Z,4.90
2019-05-12T22:35:01.046Z,8.17
2019-05-12T22:39:53.581Z,5.03
2019-05-12T22:44:46.155Z,5.70
2019-05-12T22:49:38.788Z,6.23
2019-05-12T22:54:30.827Z,5.65
2019-05-12T22:59:25.187Z,6.47
2019-05-12T23:04:17.244Z,5.77
2019-05-12T23:09:09.785Z,7.43
2019-05-12T23:14:04.020Z,9.03
2019-05-12T23:19:01.493Z,21.23
2019-05-12T23:23:57.451Z,14.40
2019-05-12T23:28:46.733Z,17.33
2019-05-12T23:33:38.753Z,24.27
2019-05-12T23:38:33.764Z,18.23
2019-05-12T23:43:25.293Z,13.97
2019-05-12T23:48:17.903Z,19.30
2019-05-12T23:53:10.477Z,32.40
2019-05-12T23:58:04.279Z,24.57
